Time;durP1;ratioP1;P1;durP2;ratioP2;P2;SDS_P1;SDS_P2;PMS_P1;PMS_P2;Temp;Humidity;BMP_temperature;BMP_pressure;BME280_temperature;BME280_humidity;BME280_pressure;Samples;Min_cycle;Max_cycle;Signal;HPM_P1;HPM_P2
2022/05/27 00:01:26;;;;;;;1.15;0.90;;;17.60;99.90;;;;;;7392496;19;20174;-76
2022/05/27 00:03:52;;;;;;;1.10;1.00;;;17.80;99.90;;;;;;7391746;19;20818;-77
2022/05/27 00:06:19;;;;;;;1.50;1.10;;;17.50;99.90;;;;;;7395821;19;20588;-77
2022/05/27 00:08:45;;;;;;;1.73;0.88;;;17.60;99.90;;;;;;7395843;19;20126;-77
2022/05/27 00:11:12;;;;;;;1.75;1.05;;;17.70;99.90;;;;;;7398185;19;20478;-76
2022/05/27 00:13:38;;;;;;;2.72;1.00;;;17.80;99.90;;;;;;7395159;19;20551;-77
2022/05/27 00:16:04;;;;;;;2.45;1.00;;;17.80;99.90;;;;;;7393310;19;20150;-76
2022/05/27 00:18:30;;;;;;;1.40;0.98;;;17.70;99.90;;;;;;7390935;19;20151;-76
2022/05/27 00:20:57;;;;;;;1.40;0.90;;;17.70;99.90;;;;;;7391255;19;20166;-76
2022/05/27 00:23:23;;;;;;;1.13;0.85;;;17.60;99.90;;;;;;7396212;19;20482;-76
2022/05/27 00:25:49;;;;;;;1.10;0.93;;;17.70;99.90;;;;;;7394686;19;20349;-77
2022/05/27 00:28:15;;;;;;;2.22;1.10;;;17.70;99.90;;;;;;7392321;19;20134;-76
2022/05/27 00:30:41;;;;;;;1.60;1.17;;;17.70;99.90;;;;;;7393285;19;20476;-76
2022/05/27 00:33:07;;;;;;;1.85;1.10;;;17.60;99.90;;;;;;7391543;19;20218;-76
2022/05/27 00:35:33;;;;;;;1.38;0.90;;;17.60;99.90;;;;;;7391784;19;20151;-77
2022/05/27 00:37:59;;;;;;;2.38;1.02;;;17.70;99.90;;;;;;7391524;19;20134;-77
2022/05/27 00:40:34;;;;;;;1.30;1.13;;;17.70;99.90;;;;;;7394243;19;20151;-75
2022/05/27 00:43:00;;;;;;;2.22;1.00;;;17.70;99.90;;;;;;7390898;19;20170;-76
2022/05/27 00:45:26;;;;;;;1.15;0.90;;;17.70;99.90;;;;;;7394964;19;20139;-76
2022/05/27 00:47:57;;;;;;;2.05;1.10;;;17.60;99.90;;;;;;7392787;19;20153;-76
2022/05/27 00:50:30;;;;;;;1.05;0.80;;;17.50;99.90;;;;;;7395877;19;20131;-76
2022/05/27 00:52:56;;;;;;;1.40;1.00;;;17.50;99.90;;;;;;7391026;19;20134;-76
2022/05/27 00:55:27;;;;;;;1.70;0.90;;;17.50;99.90;;;;;;7391054;19;20131;-76
2022/05/27 00:58:17;;;;;;;1.00;0.90;;;17.40;99.90;;;;;;7391209;19;20502;-76
2022/05/27 01:00:43;;;;;;;1.58;0.95;;;17.50;99.90;;;;;;7390164;19;20516;-76
2022/05/27 01:03:13;;;;;;;0.95;0.88;;;17.50;99.90;;;;;;7391324;19;20510;-77
2022/05/27 01:05:41;;;;;;;1.55;0.90;;;17.50;99.90;;;;;;7395308;19;20152;-76
2022/05/27 01:08:08;;;;;;;2.30;0.90;;;17.50;99.90;;;;;;7394345;19;20559;-77
2022/05/27 01:11:00;;;;;;;2.95;0.95;;;17.20;99.90;;;;;;7393811;19;20127;-76
2022/05/27 01:13:42;;;;;;;0.88;0.80;;;17.40;99.90;;;;;;7391650;19;20148;-76
2022/05/27 01:16:26;;;;;;;1.73;1.33;;;17.30;99.90;;;;;;7389610;19;20563;-76
2022/05/27 01:22:44;;;;;;;1.55;0.90;;;17.30;99.90;;;;;;7390438;19;20220;-76
2022/05/27 01:25:13;;;;;;;1.00;0.70;;;17.20;99.90;;;;;;7391396;19;20130;-76
2022/05/27 01:28:18;;;;;;;1.35;0.60;;;17.20;99.90;;;;;;7393706;19;20546;-76
2022/05/27 01:30:58;;;;;;;0.98;0.80;;;17.20;99.90;;;;;;7389494;19;20170;-76
2022/05/27 01:33:42;;;;;;;1.45;0.93;;;17.20;99.90;;;;;;7389712;19;20131;-76
2022/05/27 01:36:20;;;;;;;1.23;0.70;;;17.10;99.90;;;;;;7389552;19;20137;-77
2022/05/27 01:39:04;;;;;;;1.08;0.88;;;17.10;99.90;;;;;;7387395;19;20133;-76
2022/05/27 01:41:33;;;;;;;1.35;0.90;;;17.10;99.90;;;;;;7393780;19;20135;-76
2022/05/27 01:44:14;;;;;;;1.38;0.82;;;17.20;99.90;;;;;;7389940;19;20513;-77
2022/05/27 01:46:48;;;;;;;1.15;0.80;;;17.20;99.90;;;;;;7395266;19;20138;-76
2022/05/27 01:49:37;;;;;;;2.47;1.17;;;17.10;99.90;;;;;;7389791;19;20135;-77
2022/05/27 01:52:19;;;;;;;2.25;1.00;;;17.20;99.90;;;;;;7391520;19;20138;-76
2022/05/27 01:54:49;;;;;;;2.65;1.00;;;17.20;99.90;;;;;;7389696;19;20162;-76
2022/05/27 01:57:23;;;;;;;2.28;1.02;;;17.30;99.90;;;;;;7391994;19;20127;-76
2022/05/27 02:00:04;;;;;;;2.22;1.00;;;17.20;99.90;;;;;;7388857;19;20161;-76
2022/05/27 02:02:32;;;;;;;2.28;1.00;;;17.10;99.90;;;;;;7389705;19;20150;-76
2022/05/27 02:05:10;;;;;;;0.95;0.88;;;17.00;99.90;;;;;;7387501;19;20606;-76
2022/05/27 02:07:58;;;;;;;1.98;1.00;;;17.00;99.90;;;;;;7390821;19;20130;-77
2022/05/27 02:10:36;;;;;;;1.48;1.00;;;17.10;99.90;;;;;;7390302;19;20126;-75
2022/05/27 02:13:15;;;;;;;2.25;0.85;;;17.10;99.90;;;;;;7389387;19;20153;-76
2022/05/27 02:15:44;;;;;;;3.40;1.10;;;17.10;99.90;;;;;;7392714;19;20588;-77
2022/05/27 02:18:23;;;;;;;1.08;0.98;;;16.90;99.90;;;;;;7388745;19;20138;-76
2022/05/27 02:21:01;;;;;;;1.33;0.90;;;16.80;99.90;;;;;;7389174;19;20129;-76
2022/05/27 02:23:41;;;;;;;1.52;0.88;;;16.60;99.90;;;;;;7389037;19;20149;-77
2022/05/27 02:26:12;;;;;;;1.60;1.00;;;16.70;99.90;;;;;;7390515;19;20227;-76
2022/05/27 02:28:42;;;;;;;1.23;0.90;;;16.80;99.90;;;;;;7388080;19;20170;-77
2022/05/27 02:31:14;;;;;;;1.45;1.00;;;16.90;99.90;;;;;;7389144;19;20581;-77
2022/05/27 02:37:01;;;;;;;1.40;0.85;;;16.90;99.90;;;;;;7394548;19;20182;-77
2022/05/27 02:39:27;;;;;;;1.77;0.95;;;16.90;99.90;;;;;;7389410;19;20540;-76
2022/05/27 02:42:14;;;;;;;1.20;0.73;;;16.80;99.90;;;;;;7387652;19;20219;-77
2022/05/27 02:44:57;;;;;;;1.30;1.10;;;16.90;99.90;;;;;;7388313;19;20133;-77
2022/05/27 02:47:35;;;;;;;0.90;0.80;;;16.90;99.90;;;;;;7388404;19;20138;-76
2022/05/27 02:50:10;;;;;;;2.00;0.88;;;16.80;99.90;;;;;;7390341;19;20663;-76
2022/05/27 02:52:59;;;;;;;1.33;1.10;;;16.90;99.90;;;;;;7398927;19;20494;-76
2022/05/27 02:55:33;;;;;;;1.52;0.90;;;17.00;99.90;;;;;;7397716;19;20126;-76
2022/05/27 02:58:02;;;;;;;2.67;0.90;;;17.00;99.90;;;;;;7393030;19;20205;-77
2022/05/27 03:00:34;;;;;;;1.40;1.10;;;16.90;99.90;;;;;;7395763;19;20169;-77
2022/05/27 03:03:01;;;;;;;2.03;0.85;;;16.70;99.90;;;;;;7394041;19;20173;-77
2022/05/27 03:06:05;;;;;;;1.02;0.70;;;16.80;99.90;;;;;;7398696;19;20130;-76
2022/05/27 03:08:37;;;;;;;0.85;0.73;;;16.80;99.90;;;;;;7394310;19;20528;-76
2022/05/27 03:11:11;;;;;;;1.23;0.82;;;16.70;99.90;;;;;;7399599;19;20455;-76
2022/05/27 03:14:05;;;;;;;1.95;1.00;;;16.80;99.90;;;;;;7395264;19;20159;-77
2022/05/27 03:16:37;;;;;;;0.80;0.80;;;16.80;99.90;;;;;;7394730;19;20142;-77
2022/05/27 03:19:20;;;;;;;0.80;0.70;;;16.90;99.90;;;;;;7394928;19;20134;-76
2022/05/27 03:22:33;;;;;;;1.98;1.00;;;16.90;99.90;;;;;;7394123;19;20658;-76
2022/05/27 03:25:17;;;;;;;1.30;1.00;;;17.00;99.90;;;;;;7393803;19;20510;-76
2022/05/27 03:27:55;;;;;;;1.63;0.90;;;17.00;99.90;;;;;;7396118;19;20126;-76
2022/05/27 03:30:31;;;;;;;2.47;0.90;;;16.70;99.90;;;;;;7396979;19;20126;-76
2022/05/27 03:33:24;;;;;;;1.95;1.00;;;16.70;99.90;;;;;;7394006;19;20470;-77
2022/05/27 03:36:03;;;;;;;1.13;0.70;;;16.80;99.90;;;;;;7395502;19;20131;-77
2022/05/27 03:38:34;;;;;;;2.22;0.90;;;16.80;99.90;;;;;;7393699;19;20153;-77
2022/05/27 03:41:02;;;;;;;1.95;0.98;;;16.90;99.90;;;;;;7395843;19;20167;-77
2022/05/27 03:43:28;;;;;;;2.25;1.20;;;16.90;99.90;;;;;;7396695;19;20146;-77
2022/05/27 03:45:57;;;;;;;3.17;0.98;;;17.00;99.90;;;;;;7393176;19;20137;-77
2022/05/27 03:48:25;;;;;;;1.75;0.95;;;16.80;99.90;;;;;;7393084;19;20589;-76
2022/05/27 03:50:55;;;;;;;1.58;0.95;;;16.80;99.90;;;;;;7392292;19;20166;-76
2022/05/27 03:54:03;;;;;;;2.00;1.10;;;16.80;99.90;;;;;;7393284;19;20130;-77
2022/05/27 03:56:07;;;;;;;0.70;0.70;;;16.50;99.90;;;;;;7392996;19;20138;-76
2022/05/27 03:58:33;;;;;;;1.95;0.80;;;16.40;99.90;;;;;;7393531;19;20135;-76
2022/05/27 04:00:58;;;;;;;1.92;1.00;;;16.10;99.90;;;;;;7396124;19;20147;-77
2022/05/27 04:03:24;;;;;;;2.20;0.88;;;16.20;99.90;;;;;;7391886;19;20161;-77
2022/05/27 04:05:50;;;;;;;1.50;1.00;;;16.10;99.90;;;;;;7391961;19;20157;-76
2022/05/27 04:08:16;;;;;;;5.38;1.05;;;16.20;99.90;;;;;;7392925;19;20214;-77
2022/05/27 04:10:42;;;;;;;1.23;0.85;;;16.30;99.90;;;;;;7392253;19;20127;-77
2022/05/27 04:13:08;;;;;;;1.55;0.90;;;16.60;99.90;;;;;;7392251;19;20597;-77
2022/05/27 04:15:34;;;;;;;2.05;0.95;;;16.80;99.90;;;;;;7397391;19;20617;-76
2022/05/27 04:18:00;;;;;;;4.70;1.00;;;16.90;99.90;;;;;;7394757;19;20496;-77
2022/05/27 04:20:26;;;;;;;1.50;0.90;;;16.90;99.90;;;;;;7392508;19;20126;-76
2022/05/27 04:22:55;;;;;;;1.45;1.02;;;16.90;99.90;;;;;;7392655;19;20146;-77
2022/05/27 04:25:22;;;;;;;1.25;1.08;;;17.00;99.90;;;;;;7392368;19;20488;-77
2022/05/27 04:27:48;;;;;;;1.40;0.88;;;17.10;99.90;;;;;;7391118;19;20165;-76
2022/05/27 04:30:14;;;;;;;1.63;1.00;;;17.20;99.90;;;;;;7394173;19;20135;-77
2022/05/27 04:32:41;;;;;;;1.63;1.10;;;17.20;99.90;;;;;;7394172;19;20198;-76
2022/05/27 04:35:08;;;;;;;1.80;1.08;;;16.90;99.90;;;;;;7392351;19;20617;-76
2022/05/27 04:37:35;;;;;;;2.28;0.98;;;17.00;99.90;;;;;;7390178;19;20142;-76
2022/05/27 04:40:01;;;;;;;1.95;1.08;;;17.10;99.90;;;;;;7396488;19;20155;-76
2022/05/27 04:42:28;;;;;;;3.08;1.30;;;17.10;99.90;;;;;;7391053;19;20463;-76
2022/05/27 04:44:55;;;;;;;1.90;1.30;;;17.20;99.90;;;;;;7393451;19;20158;-77
2022/05/27 04:47:21;;;;;;;1.63;0.95;;;17.30;99.90;;;;;;7393871;19;20551;-77
2022/05/27 04:49:56;;;;;;;2.00;1.15;;;17.30;99.90;;;;;;7391008;19;20610;-77
2022/05/27 04:52:25;;;;;;;1.38;1.27;;;17.20;99.90;;;;;;7390823;19;20155;-76
2022/05/27 04:54:51;;;;;;;2.88;1.15;;;17.30;99.90;;;;;;7392225;19;20134;-76
2022/05/27 04:57:24;;;;;;;1.98;1.30;;;17.40;99.90;;;;;;7390076;19;20142;-77
2022/05/27 04:59:50;;;;;;;3.22;1.27;;;17.30;99.90;;;;;;7391690;19;20155;-77
2022/05/27 05:02:24;;;;;;;4.13;1.35;;;17.30;99.90;;;;;;7392978;19;20170;-76
2022/05/27 05:04:51;;;;;;;1.88;1.13;;;17.10;99.90;;;;;;7389402;19;20590;-75
2022/05/27 05:07:20;;;;;;;1.52;0.85;;;17.20;99.90;;;;;;7390260;19;20147;-77
2022/05/27 05:09:46;;;;;;;2.25;1.23;;;17.20;99.90;;;;;;7390059;19;20528;-77
2022/05/27 05:12:13;;;;;;;1.10;1.00;;;17.30;99.90;;;;;;7390928;19;20146;-76
2022/05/27 05:14:39;;;;;;;4.60;1.63;;;17.40;99.90;;;;;;7393866;19;20150;-77
2022/05/27 05:17:05;;;;;;;2.20;1.13;;;17.30;99.90;;;;;;7389464;19;21031;-77
2022/05/27 05:19:31;;;;;;;4.30;1.30;;;17.10;99.90;;;;;;7397998;19;20471;-77
2022/05/27 05:21:57;;;;;;;2.38;1.20;;;17.30;99.90;;;;;;7391851;19;20127;-77
2022/05/27 05:24:23;;;;;;;2.10;0.93;;;17.20;99.90;;;;;;7389406;19;20459;-77
2022/05/27 05:26:50;;;;;;;4.25;1.45;;;17.20;99.90;;;;;;7389436;19;20129;-77
2022/05/27 05:29:16;;;;;;;4.18;1.33;;;17.20;99.90;;;;;;7390569;19;20134;-77
2022/05/27 05:31:42;;;;;;;1.73;1.45;;;17.20;99.90;;;;;;7390505;19;20138;-77
2022/05/27 05:34:08;;;;;;;3.00;1.13;;;17.30;99.90;;;;;;7389154;19;20174;-77
2022/05/27 05:36:34;;;;;;;1.52;1.00;;;17.40;99.90;;;;;;7391149;19;20146;-77
2022/05/27 05:39:02;;;;;;;2.33;1.23;;;17.60;99.90;;;;;;7391239;19;20171;-77
2022/05/27 05:41:33;;;;;;;1.55;1.10;;;17.80;99.90;;;;;;7389525;19;20151;-77
2022/05/27 05:44:00;;;;;;;6.50;2.28;;;17.80;99.90;;;;;;7389351;19;20146;-77
2022/05/27 05:46:26;;;;;;;2.28;1.30;;;17.70;99.90;;;;;;7389568;19;20134;-77
2022/05/27 05:48:53;;;;;;;1.80;1.10;;;17.80;99.90;;;;;;7388648;19;20126;-76
2022/05/27 05:51:20;;;;;;;4.53;1.73;;;17.50;99.90;;;;;;7388694;19;20219;-76
2022/05/27 05:53:46;;;;;;;1.88;1.30;;;17.60;99.90;;;;;;7392875;19;20138;-76
2022/05/27 05:56:13;;;;;;;2.55;1.30;;;17.70;99.90;;;;;;7389879;19;20142;-77
2022/05/27 05:58:39;;;;;;;1.75;1.10;;;17.80;99.90;;;;;;7389216;19;20138;-77
2022/05/27 06:01:05;;;;;;;1.63;1.25;;;17.80;99.90;;;;;;7387949;19;20548;-76
2022/05/27 06:03:31;;;;;;;2.33;1.40;;;17.80;99.90;;;;;;7387842;19;20142;-76
2022/05/27 06:05:57;;;;;;;2.30;1.40;;;17.60;99.90;;;;;;7387902;19;20521;-76
2022/05/27 06:08:23;;;;;;;2.28;1.30;;;17.50;99.90;;;;;;7388478;19;20526;-77
2022/05/27 06:10:49;;;;;;;1.80;1.50;;;17.40;99.90;;;;;;7387617;19;20471;-77
2022/05/27 06:13:15;;;;;;;2.85;1.58;;;17.60;99.90;;;;;;7395905;19;20146;-78
2022/05/27 06:15:41;;;;;;;3.80;2.78;;;17.10;99.90;;;;;;7387783;19;20138;-77
2022/05/27 06:18:07;;;;;;;2.92;1.83;;;17.10;99.90;;;;;;7387780;19;20460;-77
2022/05/27 06:20:35;;;;;;;3.00;1.40;;;17.20;99.90;;;;;;7388520;19;20122;-76
2022/05/27 06:23:05;;;;;;;4.43;2.15;;;17.40;99.90;;;;;;7388334;19;20143;-77
2022/05/27 06:25:31;;;;;;;4.00;2.00;;;17.60;99.90;;;;;;7392350;19;20622;-78
2022/05/27 06:36:15;;;;;;;1.60;1.27;;;17.80;99.90;;;;;;7387570;19;20589;-77
2022/05/27 06:38:41;;;;;;;2.25;0.90;;;17.50;99.90;;;;;;7392075;19;20136;-76
2022/05/27 06:41:07;;;;;;;1.75;1.20;;;17.40;99.90;;;;;;7388265;19;20602;-76
2022/05/27 06:43:33;;;;;;;3.05;1.60;;;17.20;99.90;;;;;;7387193;19;20205;-77
2022/05/27 06:46:00;;;;;;;1.88;1.40;;;17.50;99.90;;;;;;7387828;19;20154;-76
2022/05/27 06:48:26;;;;;;;2.30;1.13;;;17.80;99.90;;;;;;7387430;19;20147;-77
2022/05/27 06:50:53;;;;;;;3.63;1.17;;;18.00;99.90;;;;;;7386796;19;20131;-77
2022/05/27 06:53:19;;;;;;;2.30;1.30;;;18.00;99.90;;;;;;7387278;19;20158;-77
2022/05/27 06:55:49;;;;;;;1.50;1.17;;;17.90;99.90;;;;;;7387762;19;20565;-77
2022/05/27 06:58:15;;;;;;;1.63;1.50;;;18.00;99.90;;;;;;7394986;19;20143;-77
2022/05/27 07:00:42;;;;;;;3.58;1.60;;;17.90;99.90;;;;;;7391297;19;20485;-76
2022/05/27 07:03:08;;;;;;;2.70;1.30;;;18.10;99.90;;;;;;7392019;19;20649;-77
2022/05/27 07:05:34;;;;;;;2.65;1.38;;;18.10;99.90;;;;;;7388088;19;20131;-75
2022/05/27 07:08:02;;;;;;;3.25;1.27;;;18.10;99.90;;;;;;7385678;19;20180;-77
2022/05/27 07:10:30;;;;;;;2.05;1.20;;;18.10;99.90;;;;;;7386309;19;20153;-76
2022/05/27 07:12:59;;;;;;;1.17;1.08;;;18.10;99.90;;;;;;7385995;19;20201;-77
2022/05/27 07:15:26;;;;;;;1.98;1.48;;;17.90;99.90;;;;;;7393330;19;20155;-77
2022/05/27 07:17:53;;;;;;;1.63;1.30;;;17.80;99.90;;;;;;7385241;19;20162;-76
2022/05/27 07:20:22;;;;;;;1.67;1.23;;;17.60;99.90;;;;;;7386467;19;20135;-77
2022/05/27 07:22:48;;;;;;;2.45;1.50;;;17.60;99.90;;;;;;7385893;19;20130;-77
2022/05/27 07:25:16;;;;;;;1.92;0.95;;;17.80;99.90;;;;;;7387163;19;20145;-76
2022/05/27 07:27:44;;;;;;;2.83;1.55;;;17.60;99.90;;;;;;7385817;19;20143;-76
2022/05/27 07:30:14;;;;;;;1.42;1.05;;;17.70;99.90;;;;;;7390097;19;20239;-77
2022/05/27 07:32:40;;;;;;;3.95;1.10;;;17.70;99.90;;;;;;7386441;19;20147;-77
2022/05/27 07:35:08;;;;;;;2.47;1.30;;;17.70;99.90;;;;;;7385523;19;20622;-78
2022/05/27 07:37:34;;;;;;;3.05;1.35;;;17.50;99.90;;;;;;7390445;19;20146;-77
2022/05/27 07:40:00;;;;;;;2.33;1.35;;;17.50;99.90;;;;;;7397291;19;20134;-78
2022/05/27 07:42:26;;;;;;;3.60;2.55;;;17.60;99.90;;;;;;7393622;19;20163;-77
2022/05/27 07:44:52;;;;;;;6.38;3.92;;;17.70;99.90;;;;;;7393456;19;20146;-76
2022/05/27 07:47:18;;;;;;;1.25;1.15;;;17.70;99.90;;;;;;7403310;19;20146;-76
2022/05/27 07:49:45;;;;;;;1.90;1.15;;;17.90;99.90;;;;;;7393270;19;20153;-77
2022/05/27 07:52:11;;;;;;;2.22;1.40;;;18.10;99.90;;;;;;7393222;19;20149;-78
2022/05/27 07:54:37;;;;;;;2.40;1.00;;;18.10;99.90;;;;;;7393859;19;20130;-76
2022/05/27 07:57:23;;;;;;;3.50;1.42;;;18.10;99.90;;;;;;7392356;19;20131;-78
2022/05/27 07:59:55;;;;;;;3.72;1.42;;;18.00;99.90;;;;;;7395486;19;20159;-78
2022/05/27 08:02:22;;;;;;;3.10;1.20;;;17.90;99.90;;;;;;7396161;19;20145;-76
2022/05/27 08:04:48;;;;;;;2.58;1.27;;;17.80;99.90;;;;;;7395586;19;20142;-78
2022/05/27 08:07:15;;;;;;;2.78;1.20;;;18.00;99.90;;;;;;7393942;19;20172;-76
2022/05/27 08:09:41;;;;;;;4.05;2.05;;;18.10;99.90;;;;;;7392503;19;20137;-76
2022/05/27 08:12:08;;;;;;;4.25;2.25;;;18.00;99.90;;;;;;7392936;19;20214;-76
2022/05/27 08:14:34;;;;;;;3.10;1.15;;;18.10;99.90;;;;;;7395818;19;20131;-76
2022/05/27 08:17:01;;;;;;;3.35;1.73;;;18.40;99.90;;;;;;7391775;19;20175;-77
2022/05/27 08:19:27;;;;;;;3.92;2.28;;;18.30;99.90;;;;;;7401869;19;20206;-77
2022/05/27 08:21:55;;;;;;;4.35;3.20;;;18.10;99.90;;;;;;7392956;19;20138;-77
2022/05/27 08:24:21;;;;;;;2.17;1.33;;;18.30;99.90;;;;;;7393621;19;20583;-77
2022/05/27 08:26:48;;;;;;;2.42;1.27;;;18.40;99.90;;;;;;7391344;19;20246;-76
2022/05/27 08:29:14;;;;;;;2.17;1.30;;;18.60;99.90;;;;;;7391319;19;20119;-76
2022/05/27 08:31:40;;;;;;;1.25;1.10;;;18.70;99.90;;;;;;7391106;19;20158;-77
2022/05/27 08:39:46;;;;;;;3.40;1.73;;;18.60;99.90;;;;;;7398761;19;20474;-77
2022/05/27 08:43:09;;;;;;;2.28;1.30;;;18.30;99.90;;;;;;7390704;19;20163;-75
2022/05/27 08:45:47;;;;;;;1.08;0.98;;;18.40;99.90;;;;;;7388833;19;20167;-77
2022/05/27 08:48:14;;;;;;;2.35;1.67;;;18.40;99.90;;;;;;7388098;19;20134;-77
2022/05/27 08:50:56;;;;;;;3.20;2.30;;;18.30;99.90;;;;;;7390029;19;20171;-75
2022/05/27 08:54:02;;;;;;;5.35;2.90;;;18.40;99.90;;;;;;7396937;19;20142;-77
2022/05/27 08:59:51;;;;;;;5.03;1.88;;;18.20;99.90;;;;;;7387833;19;20163;-77
2022/05/27 09:02:38;;;;;;;1.80;1.10;;;18.40;99.90;;;;;;7394210;19;20134;-76
2022/05/27 09:05:30;;;;;;;1.83;1.17;;;18.60;99.90;;;;;;7390281;19;20170;-76
2022/05/27 09:08:02;;;;;;;1.42;1.20;;;18.70;99.90;;;;;;7391801;19;20137;-77
2022/05/27 09:10:46;;;;;;;2.15;1.33;;;18.70;99.90;;;;;;7392850;19;20127;-77
2022/05/27 09:13:22;;;;;;;1.83;1.10;;;18.70;99.90;;;;;;7392854;19;20142;-77
2022/05/27 09:16:03;;;;;;;1.60;1.20;;;18.70;99.90;;;;;;7390266;19;20122;-76
2022/05/27 09:18:40;;;;;;;1.88;1.08;;;18.80;99.90;;;;;;7392663;19;20456;-76
2022/05/27 09:21:14;;;;;;;1.73;0.95;;;19.20;99.90;;;;;;7390388;19;20142;-76
2022/05/27 09:24:00;;;;;;;2.88;1.42;;;19.70;99.90;;;;;;7389690;19;20143;-77
2022/05/27 09:27:06;;;;;;;3.50;2.10;;;20.20;99.90;;;;;;7389504;19;20489;-78
2022/05/27 09:29:50;;;;;;;3.70;1.10;;;20.70;99.90;;;;;;7396613;19;20239;-78
2022/05/27 09:32:21;;;;;;;2.00;1.30;;;21.00;99.90;;;;;;7393686;19;20139;-75
2022/05/27 09:34:49;;;;;;;2.13;1.42;;;20.80;99.90;;;;;;7397793;19;20478;-76
2022/05/27 09:37:26;;;;;;;2.53;1.30;;;20.80;99.90;;;;;;7394301;19;20170;-78
2022/05/27 09:39:55;;;;;;;2.42;1.30;;;20.90;99.90;;;;;;7394122;19;20133;-78
2022/05/27 09:42:32;;;;;;;3.97;1.50;;;21.00;99.90;;;;;;7389417;19;20151;-78
2022/05/27 09:44:58;;;;;;;2.15;1.30;;;21.00;99.90;;;;;;7390194;19;20126;-77
2022/05/27 09:47:31;;;;;;;1.50;0.90;;;20.90;99.90;;;;;;7398401;19;20151;-77
2022/05/27 09:50:04;;;;;;;2.72;0.98;;;20.90;99.90;;;;;;7389237;19;20134;-78
2022/05/27 09:52:35;;;;;;;1.27;1.00;;;20.70;99.90;;;;;;7391652;19;20123;-79
2022/05/27 09:55:14;;;;;;;2.75;1.08;;;20.80;99.90;;;;;;7388988;19;20126;-75
2022/05/27 09:58:00;;;;;;;1.42;1.20;;;20.90;99.90;;;;;;7387383;19;20130;-76
2022/05/27 10:00:38;;;;;;;3.85;1.60;;;20.70;99.90;;;;;;7386902;19;20135;-77
2022/05/27 10:03:20;;;;;;;1.50;1.17;;;20.30;99.90;;;;;;7389875;19;20135;-78
2022/05/27 10:06:15;;;;;;;2.67;1.10;;;20.50;99.90;;;;;;7389215;19;20162;-76
2022/05/27 10:08:54;;;;;;;1.73;1.30;;;20.30;99.90;;;;;;7387754;19;20206;-77
2022/05/27 10:11:32;;;;;;;2.70;2.20;;;20.40;99.90;;;;;;7389044;19;20126;-79
2022/05/27 10:14:13;;;;;;;1.33;1.00;;;20.70;99.90;;;;;;7391937;19;20137;-77
2022/05/27 10:16:42;;;;;;;1.13;0.95;;;21.00;99.90;;;;;;7387839;19;20235;-77
2022/05/27 10:19:14;;;;;;;2.25;1.05;;;21.20;99.90;;;;;;7389287;19;20173;-77
2022/05/27 10:21:59;;;;;;;1.85;1.15;;;21.40;99.90;;;;;;7394412;19;20135;-78
2022/05/27 10:24:31;;;;;;;3.38;2.35;;;21.40;99.90;;;;;;7388181;19;20158;-77
2022/05/27 10:27:09;;;;;;;4.32;2.90;;;21.30;99.90;;;;;;7389116;19;20149;-78
2022/05/27 10:29:55;;;;;;;1.38;1.02;;;21.10;99.90;;;;;;7388097;19;20596;-77
2022/05/27 10:32:37;;;;;;;1.58;1.17;;;21.10;99.90;;;;;;7387657;19;20605;-78
2022/05/27 10:35:07;;;;;;;3.75;1.70;;;21.20;99.90;;;;;;7387927;19;20156;-76
2022/05/27 10:37:59;;;;;;;2.35;1.30;;;21.30;99.90;;;;;;7389263;19;20130;-76
2022/05/27 10:40:36;;;;;;;2.45;1.00;;;21.50;99.90;;;;;;7394399;19;20162;-75
2022/05/27 10:43:40;;;;;;;2.40;2.08;;;21.40;99.90;;;;;;7385869;19;20172;-77
2022/05/27 10:46:13;;;;;;;2.28;1.42;;;21.30;99.90;;;;;;7388825;19;20570;-75
2022/05/27 10:49:06;;;;;;;1.10;1.00;;;21.20;99.90;;;;;;7386548;19;20154;-77
2022/05/27 10:51:48;;;;;;;1.80;0.90;;;21.40;99.90;;;;;;7387225;19;20210;-76
2022/05/27 10:54:32;;;;;;;0.73;0.70;;;21.40;99.90;;;;;;7390385;19;20135;-76
2022/05/27 11:04:09;;;;;;;1.77;1.10;;;21.10;99.90;;;;;;7383518;19;20134;-77
2022/05/27 11:06:47;;;;;;;0.90;0.80;;;20.90;99.90;;;;;;7386722;19;20143;-79
2022/05/27 11:09:16;;;;;;;1.52;0.90;;;20.60;99.90;;;;;;7391164;19;20127;-77
2022/05/27 11:11:44;;;;;;;1.95;1.08;;;20.60;99.90;;;;;;7391309;19;20146;-76
2022/05/27 11:17:23;;;;;;;1.75;1.10;;;20.50;99.90;;;;;;7392535;19;20154;-77
2022/05/27 11:20:27;;;;;;;3.00;1.30;;;20.40;99.90;;;;;;7408824;19;20142;-77
2022/05/27 11:23:16;;;;;;;1.10;0.90;;;20.60;99.90;;;;;;7396177;19;20465;-75
2022/05/27 11:26:24;;;;;;;1.98;1.13;;;20.60;99.90;;;;;;7398272;19;20202;-76
2022/05/27 11:29:15;;;;;;;2.83;0.90;;;20.80;99.90;;;;;;7392971;19;20501;-76
2022/05/27 11:32:01;;;;;;;1.70;0.68;;;20.80;99.90;;;;;;7393214;19;20150;-76
2022/05/27 11:34:54;;;;;;;5.18;1.08;;;20.80;99.90;;;;;;7395455;19;20143;-78
2022/05/27 11:37:29;;;;;;;1.92;1.13;;;20.70;99.90;;;;;;7392266;19;20506;-76
2022/05/27 11:40:39;;;;;;;1.65;1.00;;;20.80;99.90;;;;;;7403842;19;20138;-79
2022/05/27 11:43:11;;;;;;;2.88;0.90;;;20.90;99.90;;;;;;7394754;19;20218;-78
2022/05/27 11:45:45;;;;;;;1.30;1.17;;;20.90;99.90;;;;;;7395791;19;20166;-75
2022/05/27 11:48:55;;;;;;;1.63;1.10;;;21.00;99.90;;;;;;7397784;19;20131;-76
2022/05/27 11:51:27;;;;;;;2.05;0.90;;;20.90;99.90;;;;;;7392831;19;20151;-78
2022/05/27 11:54:20;;;;;;;1.25;0.90;;;20.60;99.90;;;;;;7395113;19;20219;-78
2022/05/27 11:57:04;;;;;;;3.92;1.48;;;20.50;99.90;;;;;;7405599;19;20229;-78
2022/05/27 11:59:39;;;;;;;4.20;2.63;;;20.70;99.90;;;;;;7394970;19;20156;-77
2022/05/27 12:02:14;;;;;;;2.85;2.50;;;20.60;99.90;;;;;;7392437;19;20146;-78
2022/05/27 12:04:55;;;;;;;3.65;1.65;;;20.70;99.90;;;;;;7390797;19;20170;-78
2022/05/27 12:07:53;;;;;;;1.52;1.10;;;20.90;99.90;;;;;;7392608;19;20263;-77
2022/05/27 12:10:28;;;;;;;1.63;0.98;;;20.90;99.90;;;;;;7391807;19;20700;-76
2022/05/27 12:13:01;;;;;;;2.65;1.55;;;20.90;99.90;;;;;;7391583;19;20150;-76
2022/05/27 12:15:30;;;;;;;2.70;2.00;;;20.80;99.90;;;;;;7401831;19;20143;-78
2022/05/27 12:17:57;;;;;;;2.83;2.22;;;20.80;99.90;;;;;;7389149;19;20594;-78
2022/05/27 12:20:42;;;;;;;0.80;0.80;;;20.90;99.90;;;;;;7391457;19;20649;-75
2022/05/27 12:23:11;;;;;;;1.45;0.90;;;21.00;99.90;;;;;;7390850;19;20189;-77
2022/05/27 12:25:48;;;;;;;4.15;1.25;;;21.00;99.90;;;;;;7393730;19;20158;-75
2022/05/27 12:28:23;;;;;;;1.40;1.10;;;21.00;99.90;;;;;;7391926;19;20552;-76
2022/05/27 12:30:51;;;;;;;2.22;0.80;;;21.10;99.90;;;;;;7405623;19;20169;-77
2022/05/27 12:33:20;;;;;;;1.02;0.82;;;21.20;99.90;;;;;;7394148;19;20146;-74
2022/05/27 12:35:53;;;;;;;1.20;1.00;;;21.50;99.90;;;;;;7392134;19;20146;-78
2022/05/27 12:38:28;;;;;;;1.75;0.70;;;21.50;99.90;;;;;;7393399;19;20126;-76
2022/05/27 12:40:55;;;;;;;1.02;0.85;;;21.80;99.90;;;;;;7391232;19;20672;-77
2022/05/27 12:43:25;;;;;;;2.20;0.90;;;22.00;99.90;;;;;;7392174;19;20143;-78
2022/05/27 12:45:54;;;;;;;0.90;0.90;;;22.10;99.90;;;;;;7392864;19;20502;-75
2022/05/27 12:48:29;;;;;;;1.08;0.82;;;22.30;99.90;;;;;;7394742;19;20202;-78
2022/05/27 12:50:59;;;;;;;1.23;0.88;;;22.20;99.90;;;;;;7391742;19;20174;-78
2022/05/27 12:53:51;;;;;;;1.30;1.10;;;22.10;99.90;;;;;;7390608;19;20670;-75
2022/05/27 13:02:21;;;;;;;2.15;0.80;;;21.60;99.90;;;;;;7392882;19;20154;-76
2022/05/27 13:04:53;;;;;;;1.00;0.80;;;21.50;99.90;;;;;;7394253;19;21136;-76
2022/05/27 13:07:46;;;;;;;1.23;0.90;;;21.50;99.90;;;;;;7390008;19;20524;-76
2022/05/27 13:10:18;;;;;;;1.67;1.40;;;21.40;99.90;;;;;;7390244;19;20169;-77
2022/05/27 13:12:47;;;;;;;1.23;0.80;;;21.30;99.90;;;;;;7393724;19;20126;-77
2022/05/27 13:15:43;;;;;;;1.02;0.93;;;21.20;99.90;;;;;;7393570;19;20142;-77
2022/05/27 13:18:13;;;;;;;0.90;0.73;;;21.10;99.90;;;;;;7388976;19;20536;-76
2022/05/27 13:21:22;;;;;;;1.38;0.80;;;21.00;99.90;;;;;;7392441;19;20145;-77
2022/05/27 13:23:56;;;;;;;3.38;1.00;;;21.10;99.90;;;;;;7388740;19;20138;-77
2022/05/27 13:26:39;;;;;;;0.93;0.70;;;21.10;99.90;;;;;;7390863;19;20130;-79
2022/05/27 13:29:54;;;;;;;1.95;0.95;;;21.20;99.90;;;;;;7389258;19;20449;-79
2022/05/27 13:32:24;;;;;;;0.88;0.60;;;21.00;99.90;;;;;;7389177;19;20658;-77
2022/05/27 13:34:55;;;;;;;0.80;0.80;;;21.10;99.90;;;;;;7386683;19;20151;-78
2022/05/27 13:37:30;;;;;;;1.02;0.93;;;21.20;99.90;;;;;;7389097;19;20142;-76
2022/05/27 13:40:03;;;;;;;2.65;0.70;;;21.40;99.90;;;;;;7398863;19;20134;-76
2022/05/27 13:42:33;;;;;;;0.77;0.73;;;21.20;99.90;;;;;;7388953;19;20190;-77
2022/05/27 13:45:08;;;;;;;4.03;1.05;;;21.30;99.90;;;;;;7391040;19;20131;-76
2022/05/27 13:47:36;;;;;;;1.23;1.10;;;21.30;99.90;;;;;;7388543;19;20151;-77
2022/05/27 13:50:02;;;;;;;1.65;0.98;;;21.30;99.90;;;;;;7388982;19;20150;-77
2022/05/27 13:52:39;;;;;;;0.70;0.70;;;21.30;99.90;;;;;;7389384;19;20133;-76
2022/05/27 13:55:11;;;;;;;1.50;0.77;;;21.30;99.90;;;;;;7393034;19;20166;-78
2022/05/27 13:57:42;;;;;;;1.08;0.70;;;21.40;99.90;;;;;;7388246;19;20123;-76
2022/05/27 14:00:09;;;;;;;1.27;0.80;;;21.30;99.90;;;;;;7387881;19;20146;-78
2022/05/27 14:02:47;;;;;;;2.30;0.80;;;21.20;99.90;;;;;;7388044;19;20579;-77